sensor_id;sensor_type;location;lat;lon;timestamp;temperature;humidity
2647;DHT22;1333;50.958;6.770;2023-07-31T00:01:44;17.20;99.90
2647;DHT22;1333;50.958;6.770;2023-07-31T00:04:09;17.20;99.90
2647;DHT22;1333;50.958;6.770;2023-07-31T00:06:35;17.20;99.90
2647;DHT22;1333;50.958;6.770;2023-07-31T00:09:00;17.20;99.90
2647;DHT22;1333;50.958;6.770;2023-07-31T00:11:26;17.30;99.90
2647;DHT22;1333;50.958;6.770;2023-07-31T00:13:53;17.30;99.90
2647;DHT22;1333;50.958;6.770;2023-07-31T00:16:19;17.30;99.90
2647;DHT22;1333;50.958;6.770;2023-07-31T00:18:44;17.30;99.90
2647;DHT22;1333;50.958;6.770;2023-07-31T00:21:10;17.30;99.90
2647;DHT22;1333;50.958;6.770;2023-07-31T00:23:35;17.30;99.90
2647;DHT22;1333;50.958;6.770;2023-07-31T00:26:01;17.30;99.90
2647;DHT22;1333;50.958;6.770;2023-07-31T00:28:26;17.30;99.90
2647;DHT22;1333;50.958;6.770;2023-07-31T00:30:53;17.40;99.90
2647;DHT22;1333;50.958;6.770;2023-07-31T00:33:19;17.40;99.90
2647;DHT22;1333;50.958;6.770;2023-07-31T00:35:45;17.40;99.90
2647;DHT22;1333;50.958;6.770;2023-07-31T00:38:10;17.40;99.90
2647;DHT22;1333;50.958;6.770;2023-07-31T00:40:36;17.40;99.90
2647;DHT22;1333;50.958;6.770;2023-07-31T00:43:02;17.40;99.90
2647;DHT22;1333;50.958;6.770;2023-07-31T00:45:28;17.30;99.90
2647;DHT22;1333;50.958;6.770;2023-07-31T00:47:54;17.40;99.90
2647;DHT22;1333;50.958;6.770;2023-07-31T00:50:20;17.40;99.90
2647;DHT22;1333;50.958;6.770;2023-07-31T00:52:47;17.40;99.90
2647;DHT22;1333;50.958;6.770;2023-07-31T00:55:12;17.50;99.90
2647;DHT22;1333;50.958;6.770;2023-07-31T00:57:39;17.50;99.90
2647;DHT22;1333;50.958;6.770;2023-07-31T01:00:07;17.50;99.90
2647;DHT22;1333;50.958;6.770;2023-07-31T01:02:32;17.50;99.90
2647;DHT22;1333;50.958;6.770;2023-07-31T01:04:58;17.50;99.90
2647;DHT22;1333;50.958;6.770;2023-07-31T01:07:30;17.50;99.90
2647;DHT22;1333;50.958;6.770;2023-07-31T01:10:10;17.50;99.90
2647;DHT22;1333;50.958;6.770;2023-07-31T01:12:38;17.50;99.90
2647;DHT22;1333;50.958;6.770;2023-07-31T01:17:30;17.50;99.90
2647;DHT22;1333;50.958;6.770;2023-07-31T01:19:59;17.50;99.90
2647;DHT22;1333;50.958;6.770;2023-07-31T01:28:03;17.50;99.90
2647;DHT22;1333;50.958;6.770;2023-07-31T01:30:33;17.50;99.90
2647;DHT22;1333;50.958;6.770;2023-07-31T01:33:01;17.50;99.90
2647;DHT22;1333;50.958;6.770;2023-07-31T01:35:33;17.40;99.90
2647;DHT22;1333;50.958;6.770;2023-07-31T01:37:58;17.40;99.90
2647;DHT22;1333;50.958;6.770;2023-07-31T01:40:24;17.40;99.90
2647;DHT22;1333;50.958;6.770;2023-07-31T01:42:49;17.40;99.90
2647;DHT22;1333;50.958;6.770;2023-07-31T01:45:15;17.50;99.90
2647;DHT22;1333;50.958;6.770;2023-07-31T01:47:40;17.50;99.90
2647;DHT22;1333;50.958;6.770;2023-07-31T01:50:06;17.50;99.90
2647;DHT22;1333;50.958;6.770;2023-07-31T01:52:32;17.50;99.90
2647;DHT22;1333;50.958;6.770;2023-07-31T01:54:57;17.60;99.90
2647;DHT22;1333;50.958;6.770;2023-07-31T01:57:23;17.60;99.90
2647;DHT22;1333;50.958;6.770;2023-07-31T01:59:49;17.60;99.90
2647;DHT22;1333;50.958;6.770;2023-07-31T02:02:14;17.70;99.90
2647;DHT22;1333;50.958;6.770;2023-07-31T02:04:40;17.70;99.90
2647;DHT22;1333;50.958;6.770;2023-07-31T02:07:06;17.70;99.90
2647;DHT22;1333;50.958;6.770;2023-07-31T02:09:32;17.70;99.90
2647;DHT22;1333;50.958;6.770;2023-07-31T02:11:58;17.70;99.90
2647;DHT22;1333;50.958;6.770;2023-07-31T02:14:23;17.70;99.90
2647;DHT22;1333;50.958;6.770;2023-07-31T02:16:49;17.70;99.90
2647;DHT22;1333;50.958;6.770;2023-07-31T02:19:15;17.80;99.90
2647;DHT22;1333;50.958;6.770;2023-07-31T02:21:40;17.80;99.90
2647;DHT22;1333;50.958;6.770;2023-07-31T02:24:06;17.70;99.90
2647;DHT22;1333;50.958;6.770;2023-07-31T02:26:31;17.70;99.90
2647;DHT22;1333;50.958;6.770;2023-07-31T02:28:57;17.70;99.90
2647;DHT22;1333;50.958;6.770;2023-07-31T02:31:22;17.70;99.90
2647;DHT22;1333;50.958;6.770;2023-07-31T02:33:48;17.70;99.90
2647;DHT22;1333;50.958;6.770;2023-07-31T02:36:14;17.70;99.90
2647;DHT22;1333;50.958;6.770;2023-07-31T02:38:40;17.70;99.90
2647;DHT22;1333;50.958;6.770;2023-07-31T02:41:05;17.70;99.90
2647;DHT22;1333;50.958;6.770;2023-07-31T02:43:31;17.70;99.90
2647;DHT22;1333;50.958;6.770;2023-07-31T02:45:56;17.70;99.90
2647;DHT22;1333;50.958;6.770;2023-07-31T02:48:22;17.70;99.90
2647;DHT22;1333;50.958;6.770;2023-07-31T02:50:48;17.80;99.90
2647;DHT22;1333;50.958;6.770;2023-07-31T02:53:13;17.80;99.90
2647;DHT22;1333;50.958;6.770;2023-07-31T02:55:40;17.80;99.90
2647;DHT22;1333;50.958;6.770;2023-07-31T02:58:06;17.80;99.90
2647;DHT22;1333;50.958;6.770;2023-07-31T03:00:31;17.90;99.90
2647;DHT22;1333;50.958;6.770;2023-07-31T03:02:57;17.90;99.90
2647;DHT22;1333;50.958;6.770;2023-07-31T03:05:22;17.90;99.90
2647;DHT22;1333;50.958;6.770;2023-07-31T03:07:48;17.90;99.90
2647;DHT22;1333;50.958;6.770;2023-07-31T03:10:14;17.90;99.90
2647;DHT22;1333;50.958;6.770;2023-07-31T03:12:40;18.00;99.90
2647;DHT22;1333;50.958;6.770;2023-07-31T03:15:06;18.00;99.90
2647;DHT22;1333;50.958;6.770;2023-07-31T03:17:32;18.00;99.90
2647;DHT22;1333;50.958;6.770;2023-07-31T03:19:57;18.00;99.90
2647;DHT22;1333;50.958;6.770;2023-07-31T03:22:23;18.00;99.90
2647;DHT22;1333;50.958;6.770;2023-07-31T03:24:48;18.00;99.90
2647;DHT22;1333;50.958;6.770;2023-07-31T03:27:14;18.00;99.90
2647;DHT22;1333;50.958;6.770;2023-07-31T03:29:39;18.00;99.90
2647;DHT22;1333;50.958;6.770;2023-07-31T03:32:05;18.00;99.90
2647;DHT22;1333;50.958;6.770;2023-07-31T03:34:30;18.00;99.90
2647;DHT22;1333;50.958;6.770;2023-07-31T03:36:57;18.00;99.90
2647;DHT22;1333;50.958;6.770;2023-07-31T03:39:23;18.00;99.90
2647;DHT22;1333;50.958;6.770;2023-07-31T03:41:49;18.00;99.90
2647;DHT22;1333;50.958;6.770;2023-07-31T03:44:14;17.90;99.90
2647;DHT22;1333;50.958;6.770;2023-07-31T03:46:40;17.90;99.90
2647;DHT22;1333;50.958;6.770;2023-07-31T03:49:05;17.90;99.90
2647;DHT22;1333;50.958;6.770;2023-07-31T03:51:31;17.90;99.90
2647;DHT22;1333;50.958;6.770;2023-07-31T03:53:56;17.90;99.90
2647;DHT22;1333;50.958;6.770;2023-07-31T03:56:22;17.90;99.90
2647;DHT22;1333;50.958;6.770;2023-07-31T03:58:47;17.90;99.90
2647;DHT22;1333;50.958;6.770;2023-07-31T04:01:13;17.90;99.90
2647;DHT22;1333;50.958;6.770;2023-07-31T04:03:39;17.90;99.90
2647;DHT22;1333;50.958;6.770;2023-07-31T04:06:04;17.90;99.90
2647;DHT22;1333;50.958;6.770;2023-07-31T04:08:30;17.90;99.90
2647;DHT22;1333;50.958;6.770;2023-07-31T04:10:55;17.90;99.90
2647;DHT22;1333;50.958;6.770;2023-07-31T04:13:22;17.80;99.90
2647;DHT22;1333;50.958;6.770;2023-07-31T04:15:48;17.80;99.90
2647;DHT22;1333;50.958;6.770;2023-07-31T04:18:15;17.80;99.90
2647;DHT22;1333;50.958;6.770;2023-07-31T04:20:40;17.80;99.90
2647;DHT22;1333;50.958;6.770;2023-07-31T04:23:06;17.90;99.90
2647;DHT22;1333;50.958;6.770;2023-07-31T04:25:31;17.90;99.90
2647;DHT22;1333;50.958;6.770;2023-07-31T04:27:57;17.90;99.90
2647;DHT22;1333;50.958;6.770;2023-07-31T04:30:22;17.90;99.90
2647;DHT22;1333;50.958;6.770;2023-07-31T04:32:49;17.90;99.90
2647;DHT22;1333;50.958;6.770;2023-07-31T04:35:14;17.90;99.90
2647;DHT22;1333;50.958;6.770;2023-07-31T04:37:40;17.90;99.90
2647;DHT22;1333;50.958;6.770;2023-07-31T04:40:07;17.90;99.90
2647;DHT22;1333;50.958;6.770;2023-07-31T04:42:33;17.90;99.90
2647;DHT22;1333;50.958;6.770;2023-07-31T04:44:59;18.00;99.90
2647;DHT22;1333;50.958;6.770;2023-07-31T04:47:25;18.00;99.90
2647;DHT22;1333;50.958;6.770;2023-07-31T04:49:50;18.10;99.90
2647;DHT22;1333;50.958;6.770;2023-07-31T04:52:16;18.10;99.90
2647;DHT22;1333;50.958;6.770;2023-07-31T04:54:42;18.20;99.90
2647;DHT22;1333;50.958;6.770;2023-07-31T04:57:07;18.30;99.90
2647;DHT22;1333;50.958;6.770;2023-07-31T04:59:33;18.30;99.90
2647;DHT22;1333;50.958;6.770;2023-07-31T05:01:58;18.30;99.90
2647;DHT22;1333;50.958;6.770;2023-07-31T05:04:24;18.40;99.90
2647;DHT22;1333;50.958;6.770;2023-07-31T05:06:49;18.40;99.90
2647;DHT22;1333;50.958;6.770;2023-07-31T05:09:15;18.40;99.90
2647;DHT22;1333;50.958;6.770;2023-07-31T05:11:41;18.50;99.90
2647;DHT22;1333;50.958;6.770;2023-07-31T05:14:08;18.50;99.90
2647;DHT22;1333;50.958;6.770;2023-07-31T05:16:34;18.60;99.90
2647;DHT22;1333;50.958;6.770;2023-07-31T05:18:59;18.70;99.90
2647;DHT22;1333;50.958;6.770;2023-07-31T05:21:25;18.80;99.90
2647;DHT22;1333;50.958;6.770;2023-07-31T05:23:50;18.80;99.90
2647;DHT22;1333;50.958;6.770;2023-07-31T05:26:16;18.80;99.90
2647;DHT22;1333;50.958;6.770;2023-07-31T05:28:41;18.80;99.90
2647;DHT22;1333;50.958;6.770;2023-07-31T05:31:07;18.90;99.90
2647;DHT22;1333;50.958;6.770;2023-07-31T05:33:32;18.80;99.90
2647;DHT22;1333;50.958;6.770;2023-07-31T05:35:58;18.80;99.90
2647;DHT22;1333;50.958;6.770;2023-07-31T05:38:24;18.80;99.90
2647;DHT22;1333;50.958;6.770;2023-07-31T05:40:49;18.90;99.90
2647;DHT22;1333;50.958;6.770;2023-07-31T05:43:14;18.80;99.90
2647;DHT22;1333;50.958;6.770;2023-07-31T05:45:41;18.80;99.90
2647;DHT22;1333;50.958;6.770;2023-07-31T05:48:07;18.90;99.90
2647;DHT22;1333;50.958;6.770;2023-07-31T05:50:33;18.80;99.90
2647;DHT22;1333;50.958;6.770;2023-07-31T05:52:58;18.80;99.90
2647;DHT22;1333;50.958;6.770;2023-07-31T05:55:24;18.70;99.90
2647;DHT22;1333;50.958;6.770;2023-07-31T05:57:52;18.70;99.90
2647;DHT22;1333;50.958;6.770;2023-07-31T06:00:18;18.70;99.90
2647;DHT22;1333;50.958;6.770;2023-07-31T06:02:43;18.70;99.90
2647;DHT22;1333;50.958;6.770;2023-07-31T06:05:09;18.70;99.90
2647;DHT22;1333;50.958;6.770;2023-07-31T06:07:35;18.70;99.90
2647;DHT22;1333;50.958;6.770;2023-07-31T06:10:01;18.60;99.90
2647;DHT22;1333;50.958;6.770;2023-07-31T06:12:31;18.60;99.90
2647;DHT22;1333;50.958;6.770;2023-07-31T06:14:57;18.60;99.90
2647;DHT22;1333;50.958;6.770;2023-07-31T06:17:23;18.50;99.90
2647;DHT22;1333;50.958;6.770;2023-07-31T06:19:49;18.50;99.90
2647;DHT22;1333;50.958;6.770;2023-07-31T06:22:15;18.50;99.90
2647;DHT22;1333;50.958;6.770;2023-07-31T06:24:40;18.60;99.90
2647;DHT22;1333;50.958;6.770;2023-07-31T06:27:06;18.70;99.90
2647;DHT22;1333;50.958;6.770;2023-07-31T06:29:32;18.70;99.90
2647;DHT22;1333;50.958;6.770;2023-07-31T06:31:58;18.70;99.90
2647;DHT22;1333;50.958;6.770;2023-07-31T06:34:23;18.60;99.90
2647;DHT22;1333;50.958;6.770;2023-07-31T06:36:49;18.70;99.90
2647;DHT22;1333;50.958;6.770;2023-07-31T06:39:14;18.70;99.90
2647;DHT22;1333;50.958;6.770;2023-07-31T06:41:40;18.80;99.90
2647;DHT22;1333;50.958;6.770;2023-07-31T06:44:05;18.90;99.90
2647;DHT22;1333;50.958;6.770;2023-07-31T06:46:31;19.00;99.90
2647;DHT22;1333;50.958;6.770;2023-07-31T06:48:56;19.20;99.90
2647;DHT22;1333;50.958;6.770;2023-07-31T06:51:22;19.40;99.90
2647;DHT22;1333;50.958;6.770;2023-07-31T06:53:47;19.50;99.90
2647;DHT22;1333;50.958;6.770;2023-07-31T06:56:13;19.70;99.90
2647;DHT22;1333;50.958;6.770;2023-07-31T06:58:39;19.90;99.90
2647;DHT22;1333;50.958;6.770;2023-07-31T07:01:04;19.90;99.90
2647;DHT22;1333;50.958;6.770;2023-07-31T07:03:30;20.00;99.90
2647;DHT22;1333;50.958;6.770;2023-07-31T07:05:56;20.10;99.90
2647;DHT22;1333;50.958;6.770;2023-07-31T07:08:21;20.20;99.90
2647;DHT22;1333;50.958;6.770;2023-07-31T07:10:47;20.20;99.90
2647;DHT22;1333;50.958;6.770;2023-07-31T07:13:12;20.20;99.90
2647;DHT22;1333;50.958;6.770;2023-07-31T07:15:39;20.20;99.90
2647;DHT22;1333;50.958;6.770;2023-07-31T07:18:04;20.20;99.90
2647;DHT22;1333;50.958;6.770;2023-07-31T07:20:30;20.20;99.90
2647;DHT22;1333;50.958;6.770;2023-07-31T07:22:55;20.20;99.90
2647;DHT22;1333;50.958;6.770;2023-07-31T07:25:21;20.10;99.90
2647;DHT22;1333;50.958;6.770;2023-07-31T07:27:46;19.90;99.90
2647;DHT22;1333;50.958;6.770;2023-07-31T07:30:12;19.90;99.90
2647;DHT22;1333;50.958;6.770;2023-07-31T07:32:39;19.90;99.90
2647;DHT22;1333;50.958;6.770;2023-07-31T07:35:05;19.70;99.90
2647;DHT22;1333;50.958;6.770;2023-07-31T07:37:31;19.60;99.90
2647;DHT22;1333;50.958;6.770;2023-07-31T07:39:56;19.50;99.90
2647;DHT22;1333;50.958;6.770;2023-07-31T07:42:22;19.40;99.90
2647;DHT22;1333;50.958;6.770;2023-07-31T07:44:48;19.50;99.90
2647;DHT22;1333;50.958;6.770;2023-07-31T07:47:13;19.50;99.90
2647;DHT22;1333;50.958;6.770;2023-07-31T07:49:39;19.50;99.90
2647;DHT22;1333;50.958;6.770;2023-07-31T07:52:05;19.50;99.90
2647;DHT22;1333;50.958;6.770;2023-07-31T07:54:31;19.50;99.90
2647;DHT22;1333;50.958;6.770;2023-07-31T07:56:57;19.40;99.90
2647;DHT22;1333;50.958;6.770;2023-07-31T07:59:23;19.30;99.90
2647;DHT22;1333;50.958;6.770;2023-07-31T08:01:49;19.20;99.90
2647;DHT22;1333;50.958;6.770;2023-07-31T08:04:14;19.20;99.90
2647;DHT22;1333;50.958;6.770;2023-07-31T08:06:40;19.30;99.90
2647;DHT22;1333;50.958;6.770;2023-07-31T08:09:05;19.40;99.90
2647;DHT22;1333;50.958;6.770;2023-07-31T08:11:32;19.50;99.90
2647;DHT22;1333;50.958;6.770;2023-07-31T08:13:57;19.60;99.90
2647;DHT22;1333;50.958;6.770;2023-07-31T08:16:23;19.60;99.90
2647;DHT22;1333;50.958;6.770;2023-07-31T08:18:48;19.70;99.90
2647;DHT22;1333;50.958;6.770;2023-07-31T08:21:14;19.80;99.90
2647;DHT22;1333;50.958;6.770;2023-07-31T08:23:40;19.80;99.90
2647;DHT22;1333;50.958;6.770;2023-07-31T08:26:06;19.70;99.90
2647;DHT22;1333;50.958;6.770;2023-07-31T08:28:31;19.80;99.90
2647;DHT22;1333;50.958;6.770;2023-07-31T08:30:57;19.80;99.90
2647;DHT22;1333;50.958;6.770;2023-07-31T08:33:22;19.80;99.90
2647;DHT22;1333;50.958;6.770;2023-07-31T08:35:48;19.80;99.90
2647;DHT22;1333;50.958;6.770;2023-07-31T08:38:14;19.80;99.90
2647;DHT22;1333;50.958;6.770;2023-07-31T08:40:39;19.90;99.90
2647;DHT22;1333;50.958;6.770;2023-07-31T08:43:06;19.90;99.90
2647;DHT22;1333;50.958;6.770;2023-07-31T08:45:32;19.90;99.90
2647;DHT22;1333;50.958;6.770;2023-07-31T08:47:58;19.90;99.90
2647;DHT22;1333;50.958;6.770;2023-07-31T08:50:24;20.00;99.90
2647;DHT22;1333;50.958;6.770;2023-07-31T08:52:51;20.00;99.90
2647;DHT22;1333;50.958;6.770;2023-07-31T08:55:17;20.00;99.90
2647;DHT22;1333;50.958;6.770;2023-07-31T08:57:43;20.20;99.90
2647;DHT22;1333;50.958;6.770;2023-07-31T09:00:10;20.30;99.90
2647;DHT22;1333;50.958;6.770;2023-07-31T09:02:48;20.40;99.90
2647;DHT22;1333;50.958;6.770;2023-07-31T09:05:17;20.50;99.90
2647;DHT22;1333;50.958;6.770;2023-07-31T09:07:44;20.40;99.90
2647;DHT22;1333;50.958;6.770;2023-07-31T09:10:11;20.50;99.90
2647;DHT22;1333;50.958;6.770;2023-07-31T09:12:38;21.00;99.90
2647;DHT22;1333;50.958;6.770;2023-07-31T09:15:04;21.00;99.90
2647;DHT22;1333;50.958;6.770;2023-07-31T09:17:35;20.70;99.90
2647;DHT22;1333;50.958;6.770;2023-07-31T09:20:18;20.80;99.90
2647;DHT22;1333;50.958;6.770;2023-07-31T09:22:44;21.00;99.90
2647;DHT22;1333;50.958;6.770;2023-07-31T09:25:24;21.20;99.90
2647;DHT22;1333;50.958;6.770;2023-07-31T09:28:10;21.30;99.90
2647;DHT22;1333;50.958;6.770;2023-07-31T09:30:47;21.50;99.90
2647;DHT22;1333;50.958;6.770;2023-07-31T09:33:13;22.00;99.90
2647;DHT22;1333;50.958;6.770;2023-07-31T09:35:39;22.80;99.90
2647;DHT22;1333;50.958;6.770;2023-07-31T09:38:15;23.20;99.90
2647;DHT22;1333;50.958;6.770;2023-07-31T09:40:42;23.70;99.90
2647;DHT22;1333;50.958;6.770;2023-07-31T09:43:10;24.10;99.90
2647;DHT22;1333;50.958;6.770;2023-07-31T09:45:40;23.90;99.90
2647;DHT22;1333;50.958;6.770;2023-07-31T09:48:11;23.60;99.90
2647;DHT22;1333;50.958;6.770;2023-07-31T09:50:39;23.20;99.90
2647;DHT22;1333;50.958;6.770;2023-07-31T09:53:05;22.90;99.90
2647;DHT22;1333;50.958;6.770;2023-07-31T09:55:31;22.60;99.90
2647;DHT22;1333;50.958;6.770;2023-07-31T09:57:57;22.50;99.90
2647;DHT22;1333;50.958;6.770;2023-07-31T10:00:24;22.30;99.90
2647;DHT22;1333;50.958;6.770;2023-07-31T10:02:53;22.30;99.90
2647;DHT22;1333;50.958;6.770;2023-07-31T10:05:19;22.30;99.90
2647;DHT22;1333;50.958;6.770;2023-07-31T10:07:51;22.30;99.90
2647;DHT22;1333;50.958;6.770;2023-07-31T10:10:20;22.40;99.90
2647;DHT22;1333;50.958;6.770;2023-07-31T10:12:48;22.40;99.90
2647;DHT22;1333;50.958;6.770;2023-07-31T10:15:14;22.20;99.90
2647;DHT22;1333;50.958;6.770;2023-07-31T10:17:40;22.00;99.90
2647;DHT22;1333;50.958;6.770;2023-07-31T10:20:07;21.90;99.90
2647;DHT22;1333;50.958;6.770;2023-07-31T10:22:34;22.10;99.90
2647;DHT22;1333;50.958;6.770;2023-07-31T10:25:00;22.20;99.90
2647;DHT22;1333;50.958;6.770;2023-07-31T10:27:26;22.30;99.90
2647;DHT22;1333;50.958;6.770;2023-07-31T10:29:54;22.30;99.90
2647;DHT22;1333;50.958;6.770;2023-07-31T10:32:21;22.40;99.90
2647;DHT22;1333;50.958;6.770;2023-07-31T10:34:48;22.30;99.90
2647;DHT22;1333;50.958;6.770;2023-07-31T10:37:24;22.20;99.90
2647;DHT22;1333;50.958;6.770;2023-07-31T10:40:06;22.00;99.90
2647;DHT22;1333;50.958;6.770;2023-07-31T10:42:33;21.90;99.90
2647;DHT22;1333;50.958;6.770;2023-07-31T10:45:04;21.80;99.90
2647;DHT22;1333;50.958;6.770;2023-07-31T10:47:31;21.70;99.90
2647;DHT22;1333;50.958;6.770;2023-07-31T10:50:18;21.70;99.90
2647;DHT22;1333;50.958;6.770;2023-07-31T10:52:52;21.80;99.90
2647;DHT22;1333;50.958;6.770;2023-07-31T10:57:50;21.90;99.90
2647;DHT22;1333;50.958;6.770;2023-07-31T11:00:25;21.80;99.90
2647;DHT22;1333;50.958;6.770;2023-07-31T11:05:50;21.70;99.90
2647;DHT22;1333;50.958;6.770;2023-07-31T11:08:24;21.60;99.90
2647;DHT22;1333;50.958;6.770;2023-07-31T11:13:41;21.80;99.90
2647;DHT22;1333;50.958;6.770;2023-07-31T11:16:07;22.10;99.90
2647;DHT22;1333;50.958;6.770;2023-07-31T11:18:33;22.50;99.90
2647;DHT22;1333;50.958;6.770;2023-07-31T11:20:59;22.70;99.90
2647;DHT22;1333;50.958;6.770;2023-07-31T11:23:24;23.00;99.90
2647;DHT22;1333;50.958;6.770;2023-07-31T11:25:50;23.80;99.90
2647;DHT22;1333;50.958;6.770;2023-07-31T11:28:17;24.70;99.90
2647;DHT22;1333;50.958;6.770;2023-07-31T11:30:44;24.80;99.90
2647;DHT22;1333;50.958;6.770;2023-07-31T11:33:12;24.80;99.90
2647;DHT22;1333;50.958;6.770;2023-07-31T11:35:45;24.70;99.90
2647;DHT22;1333;50.958;6.770;2023-07-31T11:38:27;24.70;99.90
2647;DHT22;1333;50.958;6.770;2023-07-31T11:41:00;24.50;99.90
2647;DHT22;1333;50.958;6.770;2023-07-31T11:43:28;24.20;99.90
2647;DHT22;1333;50.958;6.770;2023-07-31T11:45:57;24.60;99.90
2647;DHT22;1333;50.958;6.770;2023-07-31T11:48:31;25.10;99.90
2647;DHT22;1333;50.958;6.770;2023-07-31T11:51:06;25.30;99.90
2647;DHT22;1333;50.958;6.770;2023-07-31T11:56:08;24.60;99.90
2647;DHT22;1333;50.958;6.770;2023-07-31T11:58:35;24.10;99.90
2647;DHT22;1333;50.958;6.770;2023-07-31T12:01:02;23.70;99.90
2647;DHT22;1333;50.958;6.770;2023-07-31T12:03:28;23.40;99.90
2647;DHT22;1333;50.958;6.770;2023-07-31T12:05:54;23.20;99.90
2647;DHT22;1333;50.958;6.770;2023-07-31T12:08:21;22.80;99.90
2647;DHT22;1333;50.958;6.770;2023-07-31T12:10:51;22.60;99.90
2647;DHT22;1333;50.958;6.770;2023-07-31T12:13:24;22.50;99.90
2647;DHT22;1333;50.958;6.770;2023-07-31T12:15:58;22.40;99.90
2647;DHT22;1333;50.958;6.770;2023-07-31T12:18:26;22.30;99.90
2647;DHT22;1333;50.958;6.770;2023-07-31T12:21:01;22.10;99.90
2647;DHT22;1333;50.958;6.770;2023-07-31T12:23:29;22.10;99.90
2647;DHT22;1333;50.958;6.770;2023-07-31T12:26:15;21.90;99.90
2647;DHT22;1333;50.958;6.770;2023-07-31T12:28:45;22.00;99.90
2647;DHT22;1333;50.958;6.770;2023-07-31T12:31:16;22.00;99.90
2647;DHT22;1333;50.958;6.770;2023-07-31T12:33:46;22.20;99.90
2647;DHT22;1333;50.958;6.770;2023-07-31T12:36:14;22.20;99.90
2647;DHT22;1333;50.958;6.770;2023-07-31T12:38:41;22.20;99.90
2647;DHT22;1333;50.958;6.770;2023-07-31T12:41:07;22.40;99.90
2647;DHT22;1333;50.958;6.770;2023-07-31T12:43:37;22.50;99.90
2647;DHT22;1333;50.958;6.770;2023-07-31T12:46:02;22.50;99.90
2647;DHT22;1333;50.958;6.770;2023-07-31T12:48:28;22.60;99.90
2647;DHT22;1333;50.958;6.770;2023-07-31T12:50:54;22.70;99.90
2647;DHT22;1333;50.958;6.770;2023-07-31T12:53:19;22.60;99.90
2647;DHT22;1333;50.958;6.770;2023-07-31T12:55:45;22.60;99.90
2647;DHT22;1333;50.958;6.770;2023-07-31T12:58:10;22.60;99.90
2647;DHT22;1333;50.958;6.770;2023-07-31T13:00:36;22.70;99.90
2647;DHT22;1333;50.958;6.770;2023-07-31T13:03:02;22.70;99.90
2647;DHT22;1333;50.958;6.770;2023-07-31T13:05:28;22.70;99.90
2647;DHT22;1333;50.958;6.770;2023-07-31T13:07:54;22.70;99.90
2647;DHT22;1333;50.958;6.770;2023-07-31T13:10:20;22.70;99.90
2647;DHT22;1333;50.958;6.770;2023-07-31T13:12:45;22.70;99.90
2647;DHT22;1333;50.958;6.770;2023-07-31T13:15:11;22.60;99.90
2647;DHT22;1333;50.958;6.770;2023-07-31T13:17:37;22.60;99.90
2647;DHT22;1333;50.958;6.770;2023-07-31T13:20:03;22.60;99.90
2647;DHT22;1333;50.958;6.770;2023-07-31T13:22:29;22.60;99.90
2647;DHT22;1333;50.958;6.770;2023-07-31T13:24:55;22.80;99.90
2647;DHT22;1333;50.958;6.770;2023-07-31T13:27:20;23.10;99.90
2647;DHT22;1333;50.958;6.770;2023-07-31T13:29:48;23.40;99.90
2647;DHT22;1333;50.958;6.770;2023-07-31T13:32:15;23.60;99.90
2647;DHT22;1333;50.958;6.770;2023-07-31T13:34:40;23.80;99.90
2647;DHT22;1333;50.958;6.770;2023-07-31T13:37:06;23.80;99.90
2647;DHT22;1333;50.958;6.770;2023-07-31T13:39:32;23.90;99.90
2647;DHT22;1333;50.958;6.770;2023-07-31T13:41:58;23.80;99.90
2647;DHT22;1333;50.958;6.770;2023-07-31T13:44:24;23.70;99.90
2647;DHT22;1333;50.958;6.770;2023-07-31T13:46:49;23.80;99.90
2647;DHT22;1333;50.958;6.770;2023-07-31T13:49:15;24.10;99.90
2647;DHT22;1333;50.958;6.770;2023-07-31T13:51:41;24.50;99.90
2647;DHT22;1333;50.958;6.770;2023-07-31T13:54:06;25.10;99.90
2647;DHT22;1333;50.958;6.770;2023-07-31T13:56:32;25.90;99.90
2647;DHT22;1333;50.958;6.770;2023-07-31T13:58:58;26.70;99.90
2647;DHT22;1333;50.958;6.770;2023-07-31T14:01:23;26.80;99.90
2647;DHT22;1333;50.958;6.770;2023-07-31T14:03:49;26.50;99.90
2647;DHT22;1333;50.958;6.770;2023-07-31T14:06:15;26.20;99.90
2647;DHT22;1333;50.958;6.770;2023-07-31T14:08:40;25.70;99.90
2647;DHT22;1333;50.958;6.770;2023-07-31T14:11:06;25.40;99.90
2647;DHT22;1333;50.958;6.770;2023-07-31T14:13:31;25.10;99.90
2647;DHT22;1333;50.958;6.770;2023-07-31T14:15:57;24.70;99.90
2647;DHT22;1333;50.958;6.770;2023-07-31T14:18:22;24.30;99.90
2647;DHT22;1333;50.958;6.770;2023-07-31T14:20:48;23.90;99.90
2647;DHT22;1333;50.958;6.770;2023-07-31T14:23:13;23.60;99.90
2647;DHT22;1333;50.958;6.770;2023-07-31T14:25:40;23.30;99.90
2647;DHT22;1333;50.958;6.770;2023-07-31T14:28:06;23.00;99.90
2647;DHT22;1333;50.958;6.770;2023-07-31T14:30:32;22.80;99.90
2647;DHT22;1333;50.958;6.770;2023-07-31T14:32:57;22.60;99.90
2647;DHT22;1333;50.958;6.770;2023-07-31T14:35:23;22.50;99.90
2647;DHT22;1333;50.958;6.770;2023-07-31T14:37:48;22.60;99.90
2647;DHT22;1333;50.958;6.770;2023-07-31T14:40:14;22.80;99.90
2647;DHT22;1333;50.958;6.770;2023-07-31T14:42:40;23.10;99.90
2647;DHT22;1333;50.958;6.770;2023-07-31T14:45:06;23.30;99.90
2647;DHT22;1333;50.958;6.770;2023-07-31T14:47:32;23.40;99.90
2647;DHT22;1333;50.958;6.770;2023-07-31T14:49:58;23.50;99.90
2647;DHT22;1333;50.958;6.770;2023-07-31T14:52:24;23.60;99.90
2647;DHT22;1333;50.958;6.770;2023-07-31T14:54:50;23.40;99.90
2647;DHT22;1333;50.958;6.770;2023-07-31T14:57:15;23.30;99.90
2647;DHT22;1333;50.958;6.770;2023-07-31T14:59:41;23.10;99.90
2647;DHT22;1333;50.958;6.770;2023-07-31T15:02:08;23.00;99.90
2647;DHT22;1333;50.958;6.770;2023-07-31T15:04:34;22.90;99.90
2647;DHT22;1333;50.958;6.770;2023-07-31T15:07:00;22.70;99.90
2647;DHT22;1333;50.958;6.770;2023-07-31T15:09:26;22.60;99.90
2647;DHT22;1333;50.958;6.770;2023-07-31T15:11:51;22.50;99.90
2647;DHT22;1333;50.958;6.770;2023-07-31T15:14:17;22.50;99.90
2647;DHT22;1333;50.958;6.770;2023-07-31T15:16:42;22.50;99.90
2647;DHT22;1333;50.958;6.770;2023-07-31T15:19:08;22.50;99.90
2647;DHT22;1333;50.958;6.770;2023-07-31T15:21:36;22.40;99.90
2647;DHT22;1333;50.958;6.770;2023-07-31T15:24:01;22.30;99.90
2647;DHT22;1333;50.958;6.770;2023-07-31T15:26:27;22.20;99.90
2647;DHT22;1333;50.958;6.770;2023-07-31T15:29:04;22.10;99.90
2647;DHT22;1333;50.958;6.770;2023-07-31T15:31:37;21.90;99.90
2647;DHT22;1333;50.958;6.770;2023-07-31T15:34:03;21.90;99.90
2647;DHT22;1333;50.958;6.770;2023-07-31T15:36:28;21.80;99.90
2647;DHT22;1333;50.958;6.770;2023-07-31T15:38:54;21.70;99.90
2647;DHT22;1333;50.958;6.770;2023-07-31T15:41:19;21.70;99.90
2647;DHT22;1333;50.958;6.770;2023-07-31T15:43:45;21.60;99.90
2647;DHT22;1333;50.958;6.770;2023-07-31T15:46:11;21.50;99.90
2647;DHT22;1333;50.958;6.770;2023-07-31T15:48:37;21.50;99.90
2647;DHT22;1333;50.958;6.770;2023-07-31T15:51:03;21.40;99.90
2647;DHT22;1333;50.958;6.770;2023-07-31T15:53:30;21.30;99.90
2647;DHT22;1333;50.958;6.770;2023-07-31T15:55:55;21.20;99.90
2647;DHT22;1333;50.958;6.770;2023-07-31T15:58:21;21.10;99.90
2647;DHT22;1333;50.958;6.770;2023-07-31T16:00:47;21.00;99.90
2647;DHT22;1333;50.958;6.770;2023-07-31T16:03:12;20.80;99.90
2647;DHT22;1333;50.958;6.770;2023-07-31T16:05:38;20.70;99.90
2647;DHT22;1333;50.958;6.770;2023-07-31T16:08:03;20.60;99.90
2647;DHT22;1333;50.958;6.770;2023-07-31T16:10:29;20.50;99.90
2647;DHT22;1333;50.958;6.770;2023-07-31T16:12:55;20.50;99.90
2647;DHT22;1333;50.958;6.770;2023-07-31T16:15:20;20.40;99.90
2647;DHT22;1333;50.958;6.770;2023-07-31T16:17:46;20.40;99.90